Eureka, Illinois
Current Conditions -  °F | °C
As of 9:55 AM on Saturday 20 Dec 2014 (Local Time) from KC75 Reporting Station
Haze Haze  
Wind Chill: 25°   Ceiling: 6500
Heat Index: 30°   Visibility: 5mi
Dew Point: 26°   Wind: 5mph
Humidity: 85%   Direction: 150°SSE
Pressure: 30.28"   Gusts: NA
Location:  40.72°N, 89.27°W
Report Text: KC75 201555Z AUTO 15004KT 5SM BR OVC065 M01/M03 A3028 RMK AO2 T10111034
Loading
Personal Weather Stations






























Interactive Weather Map New forecast layout! Learn more

10-Day Weather Forecast

Advertisements
Track Severe Weather on mobile